Terminal Aerodrome Forecast
Issued by NWS

Home | Current Version | Previous Version | Text Only | Print | Product List | Glossary On
Versions: 1 2 3 4 5 6 7 8 9 10 11 12 13
000
FTUS45 KABQ 242334
TAFAEG
TAF
KAEG 242334Z 2500/2524 31014G24KT P6SM FEW060
     FM250200 31013KT P6SM SKC
     FM250500 VRB05KT P6SM SKC
     FM252100 17014G24KT P6SM BKN200=

USA.gov is the U.S. government's official web portal to all federal, state and local government web resources and services.